Main page
METAR-TAF:

METAR-TAF

Airports :

Geneva Airport

Geneva, Switzerland

latitude: 46-15N, longitude: 006-08E, elevation: 420 m

Current weather observation

The report was made 31 minutes ago, at 09:20 UTC
Wind 5 kt from the North, varying between North/Northwest and Northeast
Temperature 6°C
Humidity 87%
Pressure 1022 hPa
Visibility: 9000 m
Few clouds at a height of 600 ft
Overcast at a height of 1300 ft

METAR: LSGG 170920Z 01005KT 330V040 9000 FEW006 OVC013 06/04 Q1022 NOSIG

Time: 10:51 (09:51 UTC)

Forecast

The report was made 1 hour and 26 minutes ago, at 08:25 UTC
Forecast valid from 17 at 09 UTC to 18 at 15 UTC
Wind 6 kt from the Northeast
Visibility 10 km or more
Broken clouds at a height of 1500 ft

TAF: LSGG 170825Z 1709/1815 05006KT 9999 BKN015 TX08/1715Z TN03/1806Z TX06/1815Z

Weather observations and forecasts of more than 4000 airports (METAR and TAF reports).

The available stations are represented by yellow and red dots on the map.

Hover mouse over dot to see the name of the station.

Then click to see weather observations and forecasts.

To change the map : click on the green buttons with a black cross to zoom in, on the green button with a dash to zoom out, or on the green arrows for adjacent maps.


METAR-TAF: